sensor_id;sensor_type;location;lat;lon;timestamp;P1;durP1;ratioP1;P2;durP2;ratioP2
75746;SDS011;64363;52.198;21.020;2023-05-07T21:41:08;15.05;;;7.10;;
75746;SDS011;64363;52.198;21.020;2023-05-07T21:43:48;13.75;;;7.28;;
75746;SDS011;64363;52.198;21.020;2023-05-07T21:46:13;16.00;;;7.28;;
75746;SDS011;64363;52.198;21.020;2023-05-07T21:48:39;13.88;;;7.10;;
75746;SDS011;64363;52.198;21.020;2023-05-07T21:51:05;15.77;;;7.63;;
75746;SDS011;64363;52.198;21.020;2023-05-07T21:53:32;18.40;;;8.30;;
75746;SDS011;64363;52.198;21.020;2023-05-07T21:56:05;13.57;;;7.93;;
75746;SDS011;64363;52.198;21.020;2023-05-07T21:58:31;14.23;;;7.95;;
75746;SDS011;64363;52.198;21.020;2023-05-07T22:00:56;18.88;;;8.40;;
75746;SDS011;64363;52.198;21.020;2023-05-07T22:03:23;18.80;;;8.90;;
75746;SDS011;64363;52.198;21.020;2023-05-07T22:05:48;18.15;;;9.90;;
75746;SDS011;64363;52.198;21.020;2023-05-07T22:08:14;23.27;;;9.05;;
75746;SDS011;64363;52.198;21.020;2023-05-07T22:10:40;16.58;;;8.65;;
75746;SDS011;64363;52.198;21.020;2023-05-07T22:13:06;16.33;;;9.20;;
75746;SDS011;64363;52.198;21.020;2023-05-07T22:15:38;18.95;;;9.75;;
75746;SDS011;64363;52.198;21.020;2023-05-07T22:18:03;24.70;;;10.50;;
75746;SDS011;64363;52.198;21.020;2023-05-07T22:20:29;22.30;;;10.98;;
75746;SDS011;64363;52.198;21.020;2023-05-07T22:22:55;21.00;;;11.23;;
75746;SDS011;64363;52.198;21.020;2023-05-07T22:25:21;21.33;;;11.07;;
75746;SDS011;64363;52.198;21.020;2023-05-07T22:27:48;22.60;;;10.05;;
75746;SDS011;64363;52.198;21.020;2023-05-07T22:30:15;17.65;;;9.95;;
75746;SDS011;64363;52.198;21.020;2023-05-07T22:32:41;22.45;;;11.38;;
75746;SDS011;64363;52.198;21.020;2023-05-07T22:35:08;20.50;;;11.02;;
75746;SDS011;64363;52.198;21.020;2023-05-07T22:37:34;23.08;;;11.50;;
75746;SDS011;64363;52.198;21.020;2023-05-07T22:40:06;21.40;;;10.32;;
75746;SDS011;64363;52.198;21.020;2023-05-07T22:42:32;19.52;;;10.43;;
75746;SDS011;64363;52.198;21.020;2023-05-07T22:44:58;21.55;;;11.05;;
75746;SDS011;64363;52.198;21.020;2023-05-07T22:47:24;22.48;;;11.55;;
75746;SDS011;64363;52.198;21.020;2023-05-07T22:49:52;25.15;;;12.73;;
75746;SDS011;64363;52.198;21.020;2023-05-07T22:52:18;25.42;;;11.82;;
75746;SDS011;64363;52.198;21.020;2023-05-07T22:54:43;22.77;;;11.63;;
75746;SDS011;64363;52.198;21.020;2023-05-07T22:57:09;23.55;;;11.20;;
75746;SDS011;64363;52.198;21.020;2023-05-07T22:59:35;24.00;;;12.60;;
75746;SDS011;64363;52.198;21.020;2023-05-07T23:02:01;22.90;;;11.13;;
75746;SDS011;64363;52.198;21.020;2023-05-07T23:04:28;25.55;;;12.93;;
75746;SDS011;64363;52.198;21.020;2023-05-07T23:06:54;24.23;;;11.82;;
75746;SDS011;64363;52.198;21.020;2023-05-07T23:09:20;26.23;;;13.43;;
75746;SDS011;64363;52.198;21.020;2023-05-07T23:11:46;28.95;;;12.68;;
75746;SDS011;64363;52.198;21.020;2023-05-07T23:14:17;24.35;;;13.07;;
75746;SDS011;64363;52.198;21.020;2023-05-07T23:16:43;33.00;;;15.20;;
75746;SDS011;64363;52.198;21.020;2023-05-07T23:19:09;26.75;;;14.02;;
75746;SDS011;64363;52.198;21.020;2023-05-07T23:21:36;29.92;;;14.80;;
75746;SDS011;64363;52.198;21.020;2023-05-07T23:24:01;29.42;;;14.32;;
75746;SDS011;64363;52.198;21.020;2023-05-07T23:26:27;28.90;;;14.48;;
75746;SDS011;64363;52.198;21.020;2023-05-07T23:28:53;31.23;;;14.05;;
75746;SDS011;64363;52.198;21.020;2023-05-07T23:31:18;30.58;;;14.57;;
75746;SDS011;64363;52.198;21.020;2023-05-07T23:33:44;30.38;;;14.65;;
75746;SDS011;64363;52.198;21.020;2023-05-07T23:36:10;29.83;;;14.25;;
75746;SDS011;64363;52.198;21.020;2023-05-07T23:38:35;29.60;;;13.82;;
75746;SDS011;64363;52.198;21.020;2023-05-07T23:41:08;32.08;;;15.48;;
75746;SDS011;64363;52.198;21.020;2023-05-07T23:43:40;28.17;;;15.40;;
75746;SDS011;64363;52.198;21.020;2023-05-07T23:46:06;31.27;;;15.05;;
75746;SDS011;64363;52.198;21.020;2023-05-07T23:48:32;29.60;;;14.35;;
75746;SDS011;64363;52.198;21.020;2023-05-07T23:50:58;27.85;;;14.88;;
75746;SDS011;64363;52.198;21.020;2023-05-07T23:53:23;32.17;;;14.65;;
75746;SDS011;64363;52.198;21.020;2023-05-07T23:55:55;30.80;;;15.68;;
75746;SDS011;64363;52.198;21.020;2023-05-07T23:58:21;28.98;;;15.07;;
